sensor_id;sensor_type;location;lat;lon;timestamp;temperature;humidity
39825;DHT22;25503;52.532;13.640;2023-04-06T00:01:37;3.70;99.90
39825;DHT22;25503;52.532;13.640;2023-04-06T00:04:02;3.80;99.90
39825;DHT22;25503;52.532;13.640;2023-04-06T00:06:28;3.80;99.90
39825;DHT22;25503;52.532;13.640;2023-04-06T00:08:55;3.70;99.90
39825;DHT22;25503;52.532;13.640;2023-04-06T00:11:21;3.80;99.90
39825;DHT22;25503;52.532;13.640;2023-04-06T00:13:46;3.70;99.90
39825;DHT22;25503;52.532;13.640;2023-04-06T00:16:12;3.70;99.90
39825;DHT22;25503;52.532;13.640;2023-04-06T00:18:38;3.70;99.90
39825;DHT22;25503;52.532;13.640;2023-04-06T00:21:04;3.70;99.90
39825;DHT22;25503;52.532;13.640;2023-04-06T00:23:30;3.70;99.90
39825;DHT22;25503;52.532;13.640;2023-04-06T00:25:56;3.60;99.90
39825;DHT22;25503;52.532;13.640;2023-04-06T00:28:21;3.60;99.90
39825;DHT22;25503;52.532;13.640;2023-04-06T00:30:53;3.70;99.90
39825;DHT22;25503;52.532;13.640;2023-04-06T00:33:20;3.60;99.90
39825;DHT22;25503;52.532;13.640;2023-04-06T00:35:46;3.60;99.90
39825;DHT22;25503;52.532;13.640;2023-04-06T00:38:12;3.50;99.90
39825;DHT22;25503;52.532;13.640;2023-04-06T00:40:38;3.60;99.90
39825;DHT22;25503;52.532;13.640;2023-04-06T00:43:07;3.60;99.90
39825;DHT22;25503;52.532;13.640;2023-04-06T00:45:34;3.50;99.90
39825;DHT22;25503;52.532;13.640;2023-04-06T00:48:00;3.50;99.90
39825;DHT22;25503;52.532;13.640;2023-04-06T00:50:27;3.50;99.90
39825;DHT22;25503;52.532;13.640;2023-04-06T00:52:54;3.50;99.90
39825;DHT22;25503;52.532;13.640;2023-04-06T00:55:20;3.40;99.90
39825;DHT22;25503;52.532;13.640;2023-04-06T00:57:45;3.40;99.90
39825;DHT22;25503;52.532;13.640;2023-04-06T01:00:11;3.30;99.90
39825;DHT22;25503;52.532;13.640;2023-04-06T01:02:38;3.30;99.90
39825;DHT22;25503;52.532;13.640;2023-04-06T01:05:04;3.20;99.90
39825;DHT22;25503;52.532;13.640;2023-04-06T01:07:30;3.30;99.90
39825;DHT22;25503;52.532;13.640;2023-04-06T01:09:55;3.30;99.90
39825;DHT22;25503;52.532;13.640;2023-04-06T01:12:21;3.30;99.90
39825;DHT22;25503;52.532;13.640;2023-04-06T01:14:47;3.30;99.90
39825;DHT22;25503;52.532;13.640;2023-04-06T01:17:12;3.30;99.90
39825;DHT22;25503;52.532;13.640;2023-04-06T01:19:38;3.30;99.90
39825;DHT22;25503;52.532;13.640;2023-04-06T01:22:05;3.30;99.90
39825;DHT22;25503;52.532;13.640;2023-04-06T01:24:32;3.30;99.90
39825;DHT22;25503;52.532;13.640;2023-04-06T01:26:58;3.30;99.90
39825;DHT22;25503;52.532;13.640;2023-04-06T01:29:23;3.30;99.90
39825;DHT22;25503;52.532;13.640;2023-04-06T01:31:49;3.20;99.90
39825;DHT22;25503;52.532;13.640;2023-04-06T01:34:15;3.20;99.90
39825;DHT22;25503;52.532;13.640;2023-04-06T01:36:41;3.20;99.90
39825;DHT22;25503;52.532;13.640;2023-04-06T01:39:07;3.10;99.90
39825;DHT22;25503;52.532;13.640;2023-04-06T01:41:32;3.00;99.90
39825;DHT22;25503;52.532;13.640;2023-04-06T01:43:58;3.00;99.90
39825;DHT22;25503;52.532;13.640;2023-04-06T01:46:24;3.00;99.90
39825;DHT22;25503;52.532;13.640;2023-04-06T01:48:50;2.90;99.90
39825;DHT22;25503;52.532;13.640;2023-04-06T01:51:16;2.90;99.90
39825;DHT22;25503;52.532;13.640;2023-04-06T01:53:41;2.90;99.90
39825;DHT22;25503;52.532;13.640;2023-04-06T01:56:07;3.00;99.90
39825;DHT22;25503;52.532;13.640;2023-04-06T01:58:33;2.90;99.90
39825;DHT22;25503;52.532;13.640;2023-04-06T02:00:59;2.90;99.90
39825;DHT22;25503;52.532;13.640;2023-04-06T02:03:24;3.00;99.90
39825;DHT22;25503;52.532;13.640;2023-04-06T02:05:50;3.00;99.90
39825;DHT22;25503;52.532;13.640;2023-04-06T02:08:16;3.00;99.90
39825;DHT22;25503;52.532;13.640;2023-04-06T02:10:41;3.10;99.90
39825;DHT22;25503;52.532;13.640;2023-04-06T02:13:07;3.00;99.90
39825;DHT22;25503;52.532;13.640;2023-04-06T02:15:32;3.00;99.90
39825;DHT22;25503;52.532;13.640;2023-04-06T02:17:58;3.00;99.90
39825;DHT22;25503;52.532;13.640;2023-04-06T02:20:24;2.90;99.90
39825;DHT22;25503;52.532;13.640;2023-04-06T02:22:50;3.00;99.90
39825;DHT22;25503;52.532;13.640;2023-04-06T02:25:16;3.00;99.90
39825;DHT22;25503;52.532;13.640;2023-04-06T02:27:42;2.90;99.90
39825;DHT22;25503;52.532;13.640;2023-04-06T02:30:08;3.00;99.90
39825;DHT22;25503;52.532;13.640;2023-04-06T02:32:34;2.90;99.90
39825;DHT22;25503;52.532;13.640;2023-04-06T02:34:59;2.90;99.90
39825;DHT22;25503;52.532;13.640;2023-04-06T02:37:25;3.00;99.90
39825;DHT22;25503;52.532;13.640;2023-04-06T02:39:51;2.90;99.90
39825;DHT22;25503;52.532;13.640;2023-04-06T02:42:16;3.00;99.90
39825;DHT22;25503;52.532;13.640;2023-04-06T02:44:42;2.90;99.90
39825;DHT22;25503;52.532;13.640;2023-04-06T02:47:08;2.90;99.90
39825;DHT22;25503;52.532;13.640;2023-04-06T02:49:34;2.80;99.90
39825;DHT22;25503;52.532;13.640;2023-04-06T02:52:00;2.80;99.90
39825;DHT22;25503;52.532;13.640;2023-04-06T02:54:26;2.90;99.90
39825;DHT22;25503;52.532;13.640;2023-04-06T02:56:51;2.90;99.90
39825;DHT22;25503;52.532;13.640;2023-04-06T02:59:17;2.70;99.90
39825;DHT22;25503;52.532;13.640;2023-04-06T03:01:43;2.70;99.90
39825;DHT22;25503;52.532;13.640;2023-04-06T03:04:08;2.70;99.90
39825;DHT22;25503;52.532;13.640;2023-04-06T03:06:34;2.60;99.90
39825;DHT22;25503;52.532;13.640;2023-04-06T03:08:59;2.60;99.90
39825;DHT22;25503;52.532;13.640;2023-04-06T03:11:25;2.60;99.90
39825;DHT22;25503;52.532;13.640;2023-04-06T03:13:51;2.60;99.90
39825;DHT22;25503;52.532;13.640;2023-04-06T03:16:17;2.50;99.90
39825;DHT22;25503;52.532;13.640;2023-04-06T03:18:43;2.50;99.90
39825;DHT22;25503;52.532;13.640;2023-04-06T03:21:10;2.40;99.90
39825;DHT22;25503;52.532;13.640;2023-04-06T03:23:36;2.30;99.90
39825;DHT22;25503;52.532;13.640;2023-04-06T03:26:02;2.30;99.90
39825;DHT22;25503;52.532;13.640;2023-04-06T03:28:28;2.30;99.90
39825;DHT22;25503;52.532;13.640;2023-04-06T03:30:53;2.30;99.90
39825;DHT22;25503;52.532;13.640;2023-04-06T03:33:19;2.20;99.90
39825;DHT22;25503;52.532;13.640;2023-04-06T03:35:45;2.20;99.90
39825;DHT22;25503;52.532;13.640;2023-04-06T03:38:10;2.30;99.90
39825;DHT22;25503;52.532;13.640;2023-04-06T03:40:36;2.20;99.90
39825;DHT22;25503;52.532;13.640;2023-04-06T03:43:01;2.20;99.90
39825;DHT22;25503;52.532;13.640;2023-04-06T03:45:27;2.10;99.90
39825;DHT22;25503;52.532;13.640;2023-04-06T03:47:53;2.20;99.90
39825;DHT22;25503;52.532;13.640;2023-04-06T03:50:18;2.10;99.90
39825;DHT22;25503;52.532;13.640;2023-04-06T03:52:44;2.00;99.90
39825;DHT22;25503;52.532;13.640;2023-04-06T03:55:10;2.00;99.90
39825;DHT22;25503;52.532;13.640;2023-04-06T03:57:36;2.00;99.90
39825;DHT22;25503;52.532;13.640;2023-04-06T04:00:03;2.10;99.90
39825;DHT22;25503;52.532;13.640;2023-04-06T04:02:29;1.90;99.90
39825;DHT22;25503;52.532;13.640;2023-04-06T04:04:54;1.80;99.90
39825;DHT22;25503;52.532;13.640;2023-04-06T04:07:20;1.90;99.90
39825;DHT22;25503;52.532;13.640;2023-04-06T04:09:46;2.00;99.90
39825;DHT22;25503;52.532;13.640;2023-04-06T04:12:11;1.80;99.90
39825;DHT22;25503;52.532;13.640;2023-04-06T04:14:37;1.80;99.90
39825;DHT22;25503;52.532;13.640;2023-04-06T04:17:02;1.80;99.90
39825;DHT22;25503;52.532;13.640;2023-04-06T04:19:28;1.80;99.90
39825;DHT22;25503;52.532;13.640;2023-04-06T04:21:54;1.70;99.90
39825;DHT22;25503;52.532;13.640;2023-04-06T04:24:19;1.60;99.90
39825;DHT22;25503;52.532;13.640;2023-04-06T04:26:45;1.60;99.90
39825;DHT22;25503;52.532;13.640;2023-04-06T04:29:11;1.60;99.90
39825;DHT22;25503;52.532;13.640;2023-04-06T04:31:36;1.60;99.90
39825;DHT22;25503;52.532;13.640;2023-04-06T04:34:02;1.70;99.90
39825;DHT22;25503;52.532;13.640;2023-04-06T04:36:27;1.50;99.90
39825;DHT22;25503;52.532;13.640;2023-04-06T04:38:53;1.40;99.90
39825;DHT22;25503;52.532;13.640;2023-04-06T04:41:19;1.50;99.90
39825;DHT22;25503;52.532;13.640;2023-04-06T04:43:44;1.40;99.90
39825;DHT22;25503;52.532;13.640;2023-04-06T04:46:11;1.40;99.90
39825;DHT22;25503;52.532;13.640;2023-04-06T04:48:36;1.40;99.90
39825;DHT22;25503;52.532;13.640;2023-04-06T04:51:03;1.30;99.90
39825;DHT22;25503;52.532;13.640;2023-04-06T04:53:29;1.20;99.90
39825;DHT22;25503;52.532;13.640;2023-04-06T04:55:55;1.30;99.90
39825;DHT22;25503;52.532;13.640;2023-04-06T04:58:20;1.30;99.90
39825;DHT22;25503;52.532;13.640;2023-04-06T05:00:46;1.20;99.90
39825;DHT22;25503;52.532;13.640;2023-04-06T05:03:21;1.20;99.90
39825;DHT22;25503;52.532;13.640;2023-04-06T05:05:48;1.20;99.90
39825;DHT22;25503;52.532;13.640;2023-04-06T05:08:13;1.10;99.90
39825;DHT22;25503;52.532;13.640;2023-04-06T05:10:39;1.10;99.90
39825;DHT22;25503;52.532;13.640;2023-04-06T05:13:05;1.10;99.90
39825;DHT22;25503;52.532;13.640;2023-04-06T05:15:30;1.10;99.90
39825;DHT22;25503;52.532;13.640;2023-04-06T05:17:56;1.00;99.90
39825;DHT22;25503;52.532;13.640;2023-04-06T05:20:22;1.10;99.90
39825;DHT22;25503;52.532;13.640;2023-04-06T05:22:48;1.20;99.90
39825;DHT22;25503;52.532;13.640;2023-04-06T05:25:14;1.20;99.90
39825;DHT22;25503;52.532;13.640;2023-04-06T05:27:40;1.20;99.90
39825;DHT22;25503;52.532;13.640;2023-04-06T05:30:06;1.30;99.90
39825;DHT22;25503;52.532;13.640;2023-04-06T05:32:32;1.30;99.90
39825;DHT22;25503;52.532;13.640;2023-04-06T05:34:58;1.30;99.90
39825;DHT22;25503;52.532;13.640;2023-04-06T05:37:24;1.40;99.90
39825;DHT22;25503;52.532;13.640;2023-04-06T05:39:49;1.40;99.90
39825;DHT22;25503;52.532;13.640;2023-04-06T05:42:15;1.40;99.90
39825;DHT22;25503;52.532;13.640;2023-04-06T05:44:41;1.40;99.90
39825;DHT22;25503;52.532;13.640;2023-04-06T05:47:06;1.50;99.90
39825;DHT22;25503;52.532;13.640;2023-04-06T05:49:32;1.60;99.90
39825;DHT22;25503;52.532;13.640;2023-04-06T05:51:58;1.70;99.90
39825;DHT22;25503;52.532;13.640;2023-04-06T05:54:23;1.80;99.90
39825;DHT22;25503;52.532;13.640;2023-04-06T05:56:49;1.90;99.90
39825;DHT22;25503;52.532;13.640;2023-04-06T05:59:15;2.00;99.90
39825;DHT22;25503;52.532;13.640;2023-04-06T06:01:40;2.10;99.90
39825;DHT22;25503;52.532;13.640;2023-04-06T06:04:06;2.30;99.90
39825;DHT22;25503;52.532;13.640;2023-04-06T06:06:32;2.30;99.90
39825;DHT22;25503;52.532;13.640;2023-04-06T06:08:57;2.50;99.90
39825;DHT22;25503;52.532;13.640;2023-04-06T06:11:27;2.70;99.90
39825;DHT22;25503;52.532;13.640;2023-04-06T06:13:53;2.80;99.90
39825;DHT22;25503;52.532;13.640;2023-04-06T06:16:19;2.90;99.90
39825;DHT22;25503;52.532;13.640;2023-04-06T06:18:45;3.10;99.90
39825;DHT22;25503;52.532;13.640;2023-04-06T06:21:10;3.20;99.90
39825;DHT22;25503;52.532;13.640;2023-04-06T06:23:39;3.40;99.90
39825;DHT22;25503;52.532;13.640;2023-04-06T06:26:05;3.50;99.90
39825;DHT22;25503;52.532;13.640;2023-04-06T06:28:31;3.60;99.90
39825;DHT22;25503;52.532;13.640;2023-04-06T06:30:56;3.70;99.90
39825;DHT22;25503;52.532;13.640;2023-04-06T06:33:22;3.90;99.90
39825;DHT22;25503;52.532;13.640;2023-04-06T06:35:48;4.00;99.90
39825;DHT22;25503;52.532;13.640;2023-04-06T06:38:14;4.20;99.90
39825;DHT22;25503;52.532;13.640;2023-04-06T06:40:40;4.30;99.90
39825;DHT22;25503;52.532;13.640;2023-04-06T06:43:06;4.40;99.90
39825;DHT22;25503;52.532;13.640;2023-04-06T06:45:32;4.50;99.90
39825;DHT22;25503;52.532;13.640;2023-04-06T06:47:58;4.50;99.90
39825;DHT22;25503;52.532;13.640;2023-04-06T06:50:23;4.70;99.90
39825;DHT22;25503;52.532;13.640;2023-04-06T06:52:49;4.70;99.90
39825;DHT22;25503;52.532;13.640;2023-04-06T06:55:15;4.80;99.90
39825;DHT22;25503;52.532;13.640;2023-04-06T06:57:41;4.90;99.90
39825;DHT22;25503;52.532;13.640;2023-04-06T07:00:08;5.00;99.90
39825;DHT22;25503;52.532;13.640;2023-04-06T07:02:35;5.10;99.90
39825;DHT22;25503;52.532;13.640;2023-04-06T07:05:02;5.20;99.90
39825;DHT22;25503;52.532;13.640;2023-04-06T07:07:27;5.40;99.90
39825;DHT22;25503;52.532;13.640;2023-04-06T07:09:53;5.50;99.90
39825;DHT22;25503;52.532;13.640;2023-04-06T07:12:19;5.60;99.90
39825;DHT22;25503;52.532;13.640;2023-04-06T07:14:44;5.70;99.90
39825;DHT22;25503;52.532;13.640;2023-04-06T07:17:10;5.90;99.90
39825;DHT22;25503;52.532;13.640;2023-04-06T07:19:36;6.00;99.90
39825;DHT22;25503;52.532;13.640;2023-04-06T07:22:02;6.10;99.90
39825;DHT22;25503;52.532;13.640;2023-04-06T07:24:28;6.20;99.90
39825;DHT22;25503;52.532;13.640;2023-04-06T07:26:54;6.40;99.90
39825;DHT22;25503;52.532;13.640;2023-04-06T07:29:21;6.50;99.90
39825;DHT22;25503;52.532;13.640;2023-04-06T07:31:48;6.60;99.90
39825;DHT22;25503;52.532;13.640;2023-04-06T07:34:14;6.70;99.90
39825;DHT22;25503;52.532;13.640;2023-04-06T07:36:40;6.80;99.90
39825;DHT22;25503;52.532;13.640;2023-04-06T07:39:06;6.90;99.90
39825;DHT22;25503;52.532;13.640;2023-04-06T07:41:32;7.10;99.90
39825;DHT22;25503;52.532;13.640;2023-04-06T07:43:57;7.20;99.90
39825;DHT22;25503;52.532;13.640;2023-04-06T07:46:23;7.20;99.90
39825;DHT22;25503;52.532;13.640;2023-04-06T07:48:49;7.40;99.90
39825;DHT22;25503;52.532;13.640;2023-04-06T07:51:15;7.40;99.90
39825;DHT22;25503;52.532;13.640;2023-04-06T07:53:43;7.60;99.90
39825;DHT22;25503;52.532;13.640;2023-04-06T07:56:09;7.70;99.90
39825;DHT22;25503;52.532;13.640;2023-04-06T07:58:35;7.90;99.90
39825;DHT22;25503;52.532;13.640;2023-04-06T08:01:01;8.00;99.90
39825;DHT22;25503;52.532;13.640;2023-04-06T08:03:27;8.00;99.90
39825;DHT22;25503;52.532;13.640;2023-04-06T08:05:53;8.20;99.90
39825;DHT22;25503;52.532;13.640;2023-04-06T08:08:19;8.30;99.90
39825;DHT22;25503;52.532;13.640;2023-04-06T08:10:49;8.40;99.90
39825;DHT22;25503;52.532;13.640;2023-04-06T08:13:15;8.60;99.90
39825;DHT22;25503;52.532;13.640;2023-04-06T08:15:41;8.70;99.90
39825;DHT22;25503;52.532;13.640;2023-04-06T08:18:08;8.70;99.90
39825;DHT22;25503;52.532;13.640;2023-04-06T08:20:34;8.80;99.90
39825;DHT22;25503;52.532;13.640;2023-04-06T08:23:01;8.90;99.90
39825;DHT22;25503;52.532;13.640;2023-04-06T08:25:26;8.90;99.90
39825;DHT22;25503;52.532;13.640;2023-04-06T08:27:52;9.00;99.90
39825;DHT22;25503;52.532;13.640;2023-04-06T08:30:18;9.10;99.90
39825;DHT22;25503;52.532;13.640;2023-04-06T08:32:45;9.20;99.90
39825;DHT22;25503;52.532;13.640;2023-04-06T08:35:11;9.30;99.90
39825;DHT22;25503;52.532;13.640;2023-04-06T08:37:37;9.30;99.90
39825;DHT22;25503;52.532;13.640;2023-04-06T08:40:03;9.30;99.90
39825;DHT22;25503;52.532;13.640;2023-04-06T08:42:32;9.40;99.90
39825;DHT22;25503;52.532;13.640;2023-04-06T08:44:58;9.50;99.90
39825;DHT22;25503;52.532;13.640;2023-04-06T08:47:24;9.60;99.90
39825;DHT22;25503;52.532;13.640;2023-04-06T08:49:51;9.80;99.90
39825;DHT22;25503;52.532;13.640;2023-04-06T08:52:18;9.90;99.90
39825;DHT22;25503;52.532;13.640;2023-04-06T08:54:44;10.10;99.90
39825;DHT22;25503;52.532;13.640;2023-04-06T08:57:10;10.20;99.90
39825;DHT22;25503;52.532;13.640;2023-04-06T08:59:37;10.30;99.90
39825;DHT22;25503;52.532;13.640;2023-04-06T09:02:04;10.30;99.90
39825;DHT22;25503;52.532;13.640;2023-04-06T09:04:32;10.30;99.90
39825;DHT22;25503;52.532;13.640;2023-04-06T09:06:58;10.40;99.90
39825;DHT22;25503;52.532;13.640;2023-04-06T09:09:24;10.60;99.90
39825;DHT22;25503;52.532;13.640;2023-04-06T09:11:51;10.60;99.90
39825;DHT22;25503;52.532;13.640;2023-04-06T09:14:36;10.70;99.90
39825;DHT22;25503;52.532;13.640;2023-04-06T09:17:02;10.80;99.90
39825;DHT22;25503;52.532;13.640;2023-04-06T09:19:28;10.80;99.90
39825;DHT22;25503;52.532;13.640;2023-04-06T09:22:04;10.80;99.90
39825;DHT22;25503;52.532;13.640;2023-04-06T09:24:52;10.90;99.90
39825;DHT22;25503;52.532;13.640;2023-04-06T09:27:19;10.80;99.90
39825;DHT22;25503;52.532;13.640;2023-04-06T09:30:03;10.90;99.90
39825;DHT22;25503;52.532;13.640;2023-04-06T09:32:29;11.10;99.90
39825;DHT22;25503;52.532;13.640;2023-04-06T09:35:08;11.20;99.90
39825;DHT22;25503;52.532;13.640;2023-04-06T09:37:34;11.30;99.90
39825;DHT22;25503;52.532;13.640;2023-04-06T09:40:04;11.30;99.90
39825;DHT22;25503;52.532;13.640;2023-04-06T09:42:30;11.40;99.90
39825;DHT22;25503;52.532;13.640;2023-04-06T09:44:56;11.50;99.90
39825;DHT22;25503;52.532;13.640;2023-04-06T09:47:22;11.60;99.90
39825;DHT22;25503;52.532;13.640;2023-04-06T09:49:56;11.50;99.90
39825;DHT22;25503;52.532;13.640;2023-04-06T09:52:27;11.50;99.90
39825;DHT22;25503;52.532;13.640;2023-04-06T09:54:56;11.40;99.90
39825;DHT22;25503;52.532;13.640;2023-04-06T09:58:16;11.40;99.90
39825;DHT22;25503;52.532;13.640;2023-04-06T10:01:07;11.60;99.90
39825;DHT22;25503;52.532;13.640;2023-04-06T10:04:02;11.50;99.90
39825;DHT22;25503;52.532;13.640;2023-04-06T10:06:31;11.30;99.90
39825;DHT22;25503;52.532;13.640;2023-04-06T10:08:59;11.20;99.90
39825;DHT22;25503;52.532;13.640;2023-04-06T10:11:27;11.20;99.90
39825;DHT22;25503;52.532;13.640;2023-04-06T10:13:53;11.00;99.90
39825;DHT22;25503;52.532;13.640;2023-04-06T10:16:21;10.90;99.90
39825;DHT22;25503;52.532;13.640;2023-04-06T10:18:53;10.90;99.90
39825;DHT22;25503;52.532;13.640;2023-04-06T10:21:23;10.80;99.90
39825;DHT22;25503;52.532;13.640;2023-04-06T10:23:52;10.80;99.90
39825;DHT22;25503;52.532;13.640;2023-04-06T10:26:22;11.00;99.90
39825;DHT22;25503;52.532;13.640;2023-04-06T10:28:49;11.20;99.90
39825;DHT22;25503;52.532;13.640;2023-04-06T10:31:15;11.40;99.90
39825;DHT22;25503;52.532;13.640;2023-04-06T10:34:02;11.70;99.90
39825;DHT22;25503;52.532;13.640;2023-04-06T10:36:32;11.90;99.90
39825;DHT22;25503;52.532;13.640;2023-04-06T10:39:03;12.10;99.90
39825;DHT22;25503;52.532;13.640;2023-04-06T10:41:47;12.10;99.90
39825;DHT22;25503;52.532;13.640;2023-04-06T10:44:21;12.00;99.90
39825;DHT22;25503;52.532;13.640;2023-04-06T10:46:57;11.90;99.90
39825;DHT22;25503;52.532;13.640;2023-04-06T10:49:25;11.90;99.90
39825;DHT22;25503;52.532;13.640;2023-04-06T10:51:56;11.80;99.90
39825;DHT22;25503;52.532;13.640;2023-04-06T10:54:25;11.80;99.90
39825;DHT22;25503;52.532;13.640;2023-04-06T10:56:51;11.70;99.90
39825;DHT22;25503;52.532;13.640;2023-04-06T10:59:21;11.60;99.90
39825;DHT22;25503;52.532;13.640;2023-04-06T11:01:47;11.60;99.90
39825;DHT22;25503;52.532;13.640;2023-04-06T11:04:16;11.40;99.90
39825;DHT22;25503;52.532;13.640;2023-04-06T11:06:46;11.40;99.90
39825;DHT22;25503;52.532;13.640;2023-04-06T11:09:29;11.30;99.90
39825;DHT22;25503;52.532;13.640;2023-04-06T11:11:57;11.40;99.90
39825;DHT22;25503;52.532;13.640;2023-04-06T11:14:22;11.30;99.90
39825;DHT22;25503;52.532;13.640;2023-04-06T11:16:48;11.20;99.90
39825;DHT22;25503;52.532;13.640;2023-04-06T11:19:17;11.20;99.90
39825;DHT22;25503;52.532;13.640;2023-04-06T11:21:47;11.20;99.90
39825;DHT22;25503;52.532;13.640;2023-04-06T11:24:19;11.30;99.90
39825;DHT22;25503;52.532;13.640;2023-04-06T11:29:22;11.40;99.90
39825;DHT22;25503;52.532;13.640;2023-04-06T11:31:53;11.50;99.90
39825;DHT22;25503;52.532;13.640;2023-04-06T11:34:23;11.50;99.90
39825;DHT22;25503;52.532;13.640;2023-04-06T11:36:57;11.50;99.90
39825;DHT22;25503;52.532;13.640;2023-04-06T11:39:24;11.40;99.90
39825;DHT22;25503;52.532;13.640;2023-04-06T11:41:58;11.40;99.90
39825;DHT22;25503;52.532;13.640;2023-04-06T11:44:35;11.40;99.90
39825;DHT22;25503;52.532;13.640;2023-04-06T11:47:05;11.40;99.90
39825;DHT22;25503;52.532;13.640;2023-04-06T11:49:32;11.50;99.90
39825;DHT22;25503;52.532;13.640;2023-04-06T11:51:59;11.50;99.90
39825;DHT22;25503;52.532;13.640;2023-04-06T11:54:38;11.60;99.90
39825;DHT22;25503;52.532;13.640;2023-04-06T11:57:04;11.60;99.90
39825;DHT22;25503;52.532;13.640;2023-04-06T11:59:33;11.50;99.90
39825;DHT22;25503;52.532;13.640;2023-04-06T12:01:59;11.50;99.90
39825;DHT22;25503;52.532;13.640;2023-04-06T12:04:26;11.50;99.90
39825;DHT22;25503;52.532;13.640;2023-04-06T12:06:51;11.50;99.90
39825;DHT22;25503;52.532;13.640;2023-04-06T12:09:17;11.50;99.90
39825;DHT22;25503;52.532;13.640;2023-04-06T12:11:43;11.40;99.90
39825;DHT22;25503;52.532;13.640;2023-04-06T12:14:09;11.30;99.90
39825;DHT22;25503;52.532;13.640;2023-04-06T12:16:35;11.20;99.90
39825;DHT22;25503;52.532;13.640;2023-04-06T12:19:01;11.20;99.90
39825;DHT22;25503;52.532;13.640;2023-04-06T12:21:27;11.10;99.90
39825;DHT22;25503;52.532;13.640;2023-04-06T12:23:54;11.10;99.90
39825;DHT22;25503;52.532;13.640;2023-04-06T12:26:20;11.00;99.90
39825;DHT22;25503;52.532;13.640;2023-04-06T12:28:46;11.00;99.90
39825;DHT22;25503;52.532;13.640;2023-04-06T12:31:19;11.00;99.90
39825;DHT22;25503;52.532;13.640;2023-04-06T12:33:51;11.10;99.90
39825;DHT22;25503;52.532;13.640;2023-04-06T12:36:19;11.10;99.90
39825;DHT22;25503;52.532;13.640;2023-04-06T12:38:48;11.10;99.90
39825;DHT22;25503;52.532;13.640;2023-04-06T12:41:14;11.10;99.90
39825;DHT22;25503;52.532;13.640;2023-04-06T12:43:41;11.20;99.90
39825;DHT22;25503;52.532;13.640;2023-04-06T12:46:07;11.20;99.90
39825;DHT22;25503;52.532;13.640;2023-04-06T12:48:32;11.20;99.90
39825;DHT22;25503;52.532;13.640;2023-04-06T12:51:00;11.20;99.90
39825;DHT22;25503;52.532;13.640;2023-04-06T12:53:26;11.10;99.90
39825;DHT22;25503;52.532;13.640;2023-04-06T12:55:54;11.10;99.90
39825;DHT22;25503;52.532;13.640;2023-04-06T12:58:21;11.10;99.90
39825;DHT22;25503;52.532;13.640;2023-04-06T13:00:48;11.10;99.90
39825;DHT22;25503;52.532;13.640;2023-04-06T13:03:14;11.10;99.90
39825;DHT22;25503;52.532;13.640;2023-04-06T13:05:50;11.10;99.90
39825;DHT22;25503;52.532;13.640;2023-04-06T13:08:17;11.40;99.90
39825;DHT22;25503;52.532;13.640;2023-04-06T13:10:51;11.70;99.90
39825;DHT22;25503;52.532;13.640;2023-04-06T13:13:21;11.80;99.90
39825;DHT22;25503;52.532;13.640;2023-04-06T13:15:47;11.90;99.90
39825;DHT22;25503;52.532;13.640;2023-04-06T13:18:13;12.10;99.90
39825;DHT22;25503;52.532;13.640;2023-04-06T13:20:38;12.20;99.90
39825;DHT22;25503;52.532;13.640;2023-04-06T13:23:05;12.40;99.90
39825;DHT22;25503;52.532;13.640;2023-04-06T13:25:30;12.60;99.90
39825;DHT22;25503;52.532;13.640;2023-04-06T13:27:58;12.70;99.90
39825;DHT22;25503;52.532;13.640;2023-04-06T13:30:24;12.90;99.90
39825;DHT22;25503;52.532;13.640;2023-04-06T13:32:50;13.10;99.90
39825;DHT22;25503;52.532;13.640;2023-04-06T13:35:15;13.20;99.90
39825;DHT22;25503;52.532;13.640;2023-04-06T13:37:42;13.10;99.90
39825;DHT22;25503;52.532;13.640;2023-04-06T13:40:08;13.20;99.90
39825;DHT22;25503;52.532;13.640;2023-04-06T13:42:34;13.40;99.90
39825;DHT22;25503;52.532;13.640;2023-04-06T13:45:01;13.50;99.90
39825;DHT22;25503;52.532;13.640;2023-04-06T13:47:26;13.50;99.90
39825;DHT22;25503;52.532;13.640;2023-04-06T13:49:53;13.50;99.90
39825;DHT22;25503;52.532;13.640;2023-04-06T13:52:19;13.60;99.90
39825;DHT22;25503;52.532;13.640;2023-04-06T13:54:45;13.70;99.90
39825;DHT22;25503;52.532;13.640;2023-04-06T13:57:11;13.90;99.90
39825;DHT22;25503;52.532;13.640;2023-04-06T13:59:37;13.70;99.90
39825;DHT22;25503;52.532;13.640;2023-04-06T14:02:05;13.70;99.90
39825;DHT22;25503;52.532;13.640;2023-04-06T14:04:31;13.50;99.90
39825;DHT22;25503;52.532;13.640;2023-04-06T14:06:58;13.60;99.90
39825;DHT22;25503;52.532;13.640;2023-04-06T14:09:23;13.60;99.90
39825;DHT22;25503;52.532;13.640;2023-04-06T14:11:50;13.60;99.90
39825;DHT22;25503;52.532;13.640;2023-04-06T14:14:16;13.60;99.90
39825;DHT22;25503;52.532;13.640;2023-04-06T14:16:42;13.60;99.90
39825;DHT22;25503;52.532;13.640;2023-04-06T14:19:11;13.70;99.90
39825;DHT22;25503;52.532;13.640;2023-04-06T14:21:38;13.70;99.90
39825;DHT22;25503;52.532;13.640;2023-04-06T14:24:05;13.80;99.90
39825;DHT22;25503;52.532;13.640;2023-04-06T14:26:31;13.80;99.90
39825;DHT22;25503;52.532;13.640;2023-04-06T14:28:58;13.80;99.90
39825;DHT22;25503;52.532;13.640;2023-04-06T14:31:23;13.70;99.90
39825;DHT22;25503;52.532;13.640;2023-04-06T14:33:49;13.70;99.90
39825;DHT22;25503;52.532;13.640;2023-04-06T14:36:15;13.50;99.90
39825;DHT22;25503;52.532;13.640;2023-04-06T14:38:40;13.40;99.90
39825;DHT22;25503;52.532;13.640;2023-04-06T14:41:08;13.30;99.90
39825;DHT22;25503;52.532;13.640;2023-04-06T14:43:35;13.20;99.90
39825;DHT22;25503;52.532;13.640;2023-04-06T14:46:02;13.20;99.90
39825;DHT22;25503;52.532;13.640;2023-04-06T14:48:28;13.10;99.90
39825;DHT22;25503;52.532;13.640;2023-04-06T14:50:55;13.10;99.90
39825;DHT22;25503;52.532;13.640;2023-04-06T14:53:21;13.20;99.90
39825;DHT22;25503;52.532;13.640;2023-04-06T14:55:47;13.10;99.90
39825;DHT22;25503;52.532;13.640;2023-04-06T14:58:15;13.00;99.90
39825;DHT22;25503;52.532;13.640;2023-04-06T15:00:40;12.90;99.90
39825;DHT22;25503;52.532;13.640;2023-04-06T15:03:06;12.90;99.90
39825;DHT22;25503;52.532;13.640;2023-04-06T15:05:34;12.80;99.90
39825;DHT22;25503;52.532;13.640;2023-04-06T15:07:59;12.80;99.90
39825;DHT22;25503;52.532;13.640;2023-04-06T15:10:26;13.00;99.90
39825;DHT22;25503;52.532;13.640;2023-04-06T15:12:52;13.00;99.90
39825;DHT22;25503;52.532;13.640;2023-04-06T15:15:17;13.00;99.90
39825;DHT22;25503;52.532;13.640;2023-04-06T15:17:43;13.00;99.90
39825;DHT22;25503;52.532;13.640;2023-04-06T15:20:09;13.10;99.90
39825;DHT22;25503;52.532;13.640;2023-04-06T15:22:35;13.00;99.90
39825;DHT22;25503;52.532;13.640;2023-04-06T15:25:00;12.90;99.90
39825;DHT22;25503;52.532;13.640;2023-04-06T15:27:26;12.80;99.90